sensor_id;sensor_type;location;lat;lon;timestamp;temperature;humidity
21759;DHT22;11041;50.854;20.580;2022-12-18T00:01:39;-3.40;99.90
21759;DHT22;11041;50.854;20.580;2022-12-18T00:04:10;-3.40;99.90
21759;DHT22;11041;50.854;20.580;2022-12-18T00:06:44;-3.40;99.90
21759;DHT22;11041;50.854;20.580;2022-12-18T00:09:11;-3.30;99.90
21759;DHT22;11041;50.854;20.580;2022-12-18T00:11:37;-3.40;99.90
21759;DHT22;11041;50.854;20.580;2022-12-18T00:14:04;-3.40;99.90
21759;DHT22;11041;50.854;20.580;2022-12-18T00:16:31;-3.40;99.90
21759;DHT22;11041;50.854;20.580;2022-12-18T00:18:59;-3.50;99.90
21759;DHT22;11041;50.854;20.580;2022-12-18T00:21:27;-3.50;99.90
21759;DHT22;11041;50.854;20.580;2022-12-18T00:23:56;-3.50;99.90
21759;DHT22;11041;50.854;20.580;2022-12-18T00:26:26;-3.50;99.90
21759;DHT22;11041;50.854;20.580;2022-12-18T00:28:55;-3.50;99.90
21759;DHT22;11041;50.854;20.580;2022-12-18T00:31:25;-3.50;99.90
21759;DHT22;11041;50.854;20.580;2022-12-18T00:33:57;-3.50;99.90
21759;DHT22;11041;50.854;20.580;2022-12-18T00:36:30;-3.50;99.90
21759;DHT22;11041;50.854;20.580;2022-12-18T00:39:02;-3.40;99.90
21759;DHT22;11041;50.854;20.580;2022-12-18T00:41:30;-3.40;99.90
21759;DHT22;11041;50.854;20.580;2022-12-18T00:44:17;-3.40;99.90
21759;DHT22;11041;50.854;20.580;2022-12-18T00:46:45;-3.40;99.90
21759;DHT22;11041;50.854;20.580;2022-12-18T00:49:12;-3.50;99.90
21759;DHT22;11041;50.854;20.580;2022-12-18T00:51:40;-3.50;99.90
21759;DHT22;11041;50.854;20.580;2022-12-18T00:54:06;-3.40;99.90
21759;DHT22;11041;50.854;20.580;2022-12-18T00:56:36;-3.30;99.90
21759;DHT22;11041;50.854;20.580;2022-12-18T00:59:04;-3.40;99.90
21759;DHT22;11041;50.854;20.580;2022-12-18T01:01:32;-3.30;99.90
21759;DHT22;11041;50.854;20.580;2022-12-18T01:04:16;-3.30;99.90
21759;DHT22;11041;50.854;20.580;2022-12-18T01:06:43;-3.30;99.90
21759;DHT22;11041;50.854;20.580;2022-12-18T01:09:09;-3.30;99.90
21759;DHT22;11041;50.854;20.580;2022-12-18T01:11:36;-3.40;99.90
21759;DHT22;11041;50.854;20.580;2022-12-18T01:14:02;-3.30;99.90
21759;DHT22;11041;50.854;20.580;2022-12-18T01:16:29;-3.30;99.90
21759;DHT22;11041;50.854;20.580;2022-12-18T01:18:55;-3.30;99.90
21759;DHT22;11041;50.854;20.580;2022-12-18T01:21:23;-3.30;99.90
21759;DHT22;11041;50.854;20.580;2022-12-18T01:23:54;-3.20;99.90
21759;DHT22;11041;50.854;20.580;2022-12-18T01:26:22;-3.30;99.90
21759;DHT22;11041;50.854;20.580;2022-12-18T01:28:50;-3.20;99.90
21759;DHT22;11041;50.854;20.580;2022-12-18T01:31:26;-3.20;99.90
21759;DHT22;11041;50.854;20.580;2022-12-18T01:33:56;-3.20;99.90
21759;DHT22;11041;50.854;20.580;2022-12-18T01:36:26;-3.20;99.90
21759;DHT22;11041;50.854;20.580;2022-12-18T01:38:55;-3.10;99.90
21759;DHT22;11041;50.854;20.580;2022-12-18T01:41:25;-3.00;99.90
21759;DHT22;11041;50.854;20.580;2022-12-18T01:50:15;-3.00;99.90
21759;DHT22;11041;50.854;20.580;2022-12-18T01:53:00;-3.00;99.90
21759;DHT22;11041;50.854;20.580;2022-12-18T01:55:41;-3.10;99.90
21759;DHT22;11041;50.854;20.580;2022-12-18T02:01:21;-3.10;99.90
21759;DHT22;11041;50.854;20.580;2022-12-18T02:03:50;-3.10;99.90
21759;DHT22;11041;50.854;20.580;2022-12-18T02:06:37;-3.10;99.90
21759;DHT22;11041;50.854;20.580;2022-12-18T02:09:16;-3.10;99.90
21759;DHT22;11041;50.854;20.580;2022-12-18T02:15:24;-3.10;99.90
21759;DHT22;11041;50.854;20.580;2022-12-18T02:21:28;-3.10;99.90
21759;DHT22;11041;50.854;20.580;2022-12-18T02:27:35;-3.20;99.90
21759;DHT22;11041;50.854;20.580;2022-12-18T02:30:06;-3.10;99.90
21759;DHT22;11041;50.854;20.580;2022-12-18T02:32:46;-3.10;99.90
21759;DHT22;11041;50.854;20.580;2022-12-18T02:35:27;-3.10;99.90
21759;DHT22;11041;50.854;20.580;2022-12-18T02:37:57;-3.10;99.90
21759;DHT22;11041;50.854;20.580;2022-12-18T02:40:26;-3.00;99.90
21759;DHT22;11041;50.854;20.580;2022-12-18T02:42:55;-3.00;99.90
21759;DHT22;11041;50.854;20.580;2022-12-18T02:45:21;-3.00;99.90
21759;DHT22;11041;50.854;20.580;2022-12-18T02:47:49;-3.00;99.90
21759;DHT22;11041;50.854;20.580;2022-12-18T02:50:25;-3.10;99.90
21759;DHT22;11041;50.854;20.580;2022-12-18T02:56:23;-3.10;99.90
21759;DHT22;11041;50.854;20.580;2022-12-18T02:59:13;-3.10;99.90
21759;DHT22;11041;50.854;20.580;2022-12-18T03:02:10;-3.10;99.90
21759;DHT22;11041;50.854;20.580;2022-12-18T03:04:43;-3.10;99.90
21759;DHT22;11041;50.854;20.580;2022-12-18T03:07:30;-3.00;99.90
21759;DHT22;11041;50.854;20.580;2022-12-18T04:06:15;-3.90;99.90
21759;DHT22;11041;50.854;20.580;2022-12-18T04:08:50;-3.20;99.90
21759;DHT22;11041;50.854;20.580;2022-12-18T04:11:17;-3.10;99.90
21759;DHT22;11041;50.854;20.580;2022-12-18T04:13:44;-3.10;99.90
21759;DHT22;11041;50.854;20.580;2022-12-18T04:16:10;-3.20;99.90
21759;DHT22;11041;50.854;20.580;2022-12-18T04:18:37;-3.20;99.90
21759;DHT22;11041;50.854;20.580;2022-12-18T04:21:04;-3.20;99.90
21759;DHT22;11041;50.854;20.580;2022-12-18T04:23:30;-3.20;99.90
21759;DHT22;11041;50.854;20.580;2022-12-18T04:25:57;-3.10;99.90
21759;DHT22;11041;50.854;20.580;2022-12-18T04:28:24;-3.00;99.90
21759;DHT22;11041;50.854;20.580;2022-12-18T04:31:05;-3.10;99.90
21759;DHT22;11041;50.854;20.580;2022-12-18T04:33:32;-3.10;99.90
21759;DHT22;11041;50.854;20.580;2022-12-18T04:36:03;-3.00;99.90
21759;DHT22;11041;50.854;20.580;2022-12-18T04:38:31;-3.10;99.90
21759;DHT22;11041;50.854;20.580;2022-12-18T04:40:58;-3.20;99.90
21759;DHT22;11041;50.854;20.580;2022-12-18T04:43:25;-3.20;99.90
21759;DHT22;11041;50.854;20.580;2022-12-18T04:45:51;-3.20;99.90
21759;DHT22;11041;50.854;20.580;2022-12-18T04:48:18;-3.10;99.90
21759;DHT22;11041;50.854;20.580;2022-12-18T04:50:47;-3.10;99.90
21759;DHT22;11041;50.854;20.580;2022-12-18T04:53:14;-3.20;99.90
21759;DHT22;11041;50.854;20.580;2022-12-18T04:55:40;-3.20;99.90
21759;DHT22;11041;50.854;20.580;2022-12-18T04:58:07;-3.20;99.90
21759;DHT22;11041;50.854;20.580;2022-12-18T05:00:33;-3.30;99.90
21759;DHT22;11041;50.854;20.580;2022-12-18T05:03:01;-3.30;99.90
21759;DHT22;11041;50.854;20.580;2022-12-18T05:05:28;-3.20;99.90
21759;DHT22;11041;50.854;20.580;2022-12-18T05:07:54;-3.20;99.90
21759;DHT22;11041;50.854;20.580;2022-12-18T05:10:21;-3.10;99.90
21759;DHT22;11041;50.854;20.580;2022-12-18T05:12:47;-3.10;99.90
21759;DHT22;11041;50.854;20.580;2022-12-18T05:15:31;-3.10;99.90
21759;DHT22;11041;50.854;20.580;2022-12-18T05:17:59;-3.00;99.90
21759;DHT22;11041;50.854;20.580;2022-12-18T05:20:26;-3.00;99.90
21759;DHT22;11041;50.854;20.580;2022-12-18T05:22:54;-2.90;99.90
21759;DHT22;11041;50.854;20.580;2022-12-18T05:25:22;-3.00;99.90
21759;DHT22;11041;50.854;20.580;2022-12-18T05:27:49;-2.90;99.90
21759;DHT22;11041;50.854;20.580;2022-12-18T05:30:16;-2.90;99.90
21759;DHT22;11041;50.854;20.580;2022-12-18T05:32:42;-2.90;99.90
21759;DHT22;11041;50.854;20.580;2022-12-18T05:35:10;-2.80;99.90
21759;DHT22;11041;50.854;20.580;2022-12-18T05:37:37;-2.80;99.90
21759;DHT22;11041;50.854;20.580;2022-12-18T05:40:04;-2.90;99.90
21759;DHT22;11041;50.854;20.580;2022-12-18T05:42:32;-2.90;99.90
21759;DHT22;11041;50.854;20.580;2022-12-18T05:44:58;-2.90;99.90
21759;DHT22;11041;50.854;20.580;2022-12-18T05:47:24;-2.90;99.90
21759;DHT22;11041;50.854;20.580;2022-12-18T05:49:52;-2.80;99.90
21759;DHT22;11041;50.854;20.580;2022-12-18T05:52:19;-2.80;99.90
21759;DHT22;11041;50.854;20.580;2022-12-18T05:54:45;-2.80;99.90
21759;DHT22;11041;50.854;20.580;2022-12-18T05:57:12;-3.00;99.90
21759;DHT22;11041;50.854;20.580;2022-12-18T05:59:38;-2.90;99.90
21759;DHT22;11041;50.854;20.580;2022-12-18T06:02:05;-3.00;99.90
21759;DHT22;11041;50.854;20.580;2022-12-18T06:04:31;-2.90;99.90
21759;DHT22;11041;50.854;20.580;2022-12-18T06:06:59;-3.00;99.90
21759;DHT22;11041;50.854;20.580;2022-12-18T06:09:25;-3.00;99.90
21759;DHT22;11041;50.854;20.580;2022-12-18T06:11:52;-3.10;99.90
21759;DHT22;11041;50.854;20.580;2022-12-18T06:14:18;-3.20;99.90
21759;DHT22;11041;50.854;20.580;2022-12-18T06:16:45;-3.20;99.90
21759;DHT22;11041;50.854;20.580;2022-12-18T06:19:15;-3.20;99.90
21759;DHT22;11041;50.854;20.580;2022-12-18T06:21:43;-3.10;99.90
21759;DHT22;11041;50.854;20.580;2022-12-18T06:24:09;-3.20;99.90
21759;DHT22;11041;50.854;20.580;2022-12-18T06:26:39;-3.20;99.90
21759;DHT22;11041;50.854;20.580;2022-12-18T06:29:06;-3.10;99.90
21759;DHT22;11041;50.854;20.580;2022-12-18T06:31:33;-3.00;99.90
21759;DHT22;11041;50.854;20.580;2022-12-18T06:34:02;-3.10;99.90
21759;DHT22;11041;50.854;20.580;2022-12-18T06:36:30;-3.10;99.90
21759;DHT22;11041;50.854;20.580;2022-12-18T06:38:58;-3.20;99.90
21759;DHT22;11041;50.854;20.580;2022-12-18T06:41:25;-3.20;99.90
21759;DHT22;11041;50.854;20.580;2022-12-18T06:43:51;-3.20;99.90
21759;DHT22;11041;50.854;20.580;2022-12-18T06:46:18;-3.20;99.90
21759;DHT22;11041;50.854;20.580;2022-12-18T06:48:49;-3.10;99.90
21759;DHT22;11041;50.854;20.580;2022-12-18T06:51:19;-3.30;99.90
21759;DHT22;11041;50.854;20.580;2022-12-18T06:53:46;-3.30;99.90
21759;DHT22;11041;50.854;20.580;2022-12-18T06:56:13;-3.30;99.90
21759;DHT22;11041;50.854;20.580;2022-12-18T06:58:40;-3.40;99.90
21759;DHT22;11041;50.854;20.580;2022-12-18T07:01:09;-3.30;99.90
21759;DHT22;11041;50.854;20.580;2022-12-18T07:03:38;-3.30;99.90
21759;DHT22;11041;50.854;20.580;2022-12-18T07:06:06;-3.30;99.90
21759;DHT22;11041;50.854;20.580;2022-12-18T07:08:38;-3.30;99.90
21759;DHT22;11041;50.854;20.580;2022-12-18T07:11:05;-3.30;99.90
21759;DHT22;11041;50.854;20.580;2022-12-18T07:13:32;-3.30;99.90
21759;DHT22;11041;50.854;20.580;2022-12-18T07:16:12;-3.30;99.90
21759;DHT22;11041;50.854;20.580;2022-12-18T07:18:44;-3.30;99.90
21759;DHT22;11041;50.854;20.580;2022-12-18T07:21:16;-3.30;99.90
21759;DHT22;11041;50.854;20.580;2022-12-18T07:23:44;-3.30;99.90
21759;DHT22;11041;50.854;20.580;2022-12-18T07:26:16;-3.40;99.90
21759;DHT22;11041;50.854;20.580;2022-12-18T07:28:44;-3.30;99.90
21759;DHT22;11041;50.854;20.580;2022-12-18T07:31:14;-3.30;99.90
21759;DHT22;11041;50.854;20.580;2022-12-18T07:33:42;-3.30;99.90
21759;DHT22;11041;50.854;20.580;2022-12-18T07:36:10;-3.40;99.90
21759;DHT22;11041;50.854;20.580;2022-12-18T07:38:37;-3.50;99.90
21759;DHT22;11041;50.854;20.580;2022-12-18T07:41:08;-3.40;99.90
21759;DHT22;11041;50.854;20.580;2022-12-18T07:43:37;-3.60;99.90
21759;DHT22;11041;50.854;20.580;2022-12-18T07:46:06;-3.50;99.90
21759;DHT22;11041;50.854;20.580;2022-12-18T07:48:34;-3.50;99.90
21759;DHT22;11041;50.854;20.580;2022-12-18T07:51:01;-3.60;99.90
21759;DHT22;11041;50.854;20.580;2022-12-18T07:53:30;-3.50;99.90
21759;DHT22;11041;50.854;20.580;2022-12-18T07:55:59;-3.60;99.90
21759;DHT22;11041;50.854;20.580;2022-12-18T07:58:28;-3.60;99.90
21759;DHT22;11041;50.854;20.580;2022-12-18T08:01:06;-3.60;99.90
21759;DHT22;11041;50.854;20.580;2022-12-18T08:03:34;-3.50;99.90
21759;DHT22;11041;50.854;20.580;2022-12-18T08:06:07;-3.40;99.90
21759;DHT22;11041;50.854;20.580;2022-12-18T08:08:36;-3.20;99.90
21759;DHT22;11041;50.854;20.580;2022-12-18T08:11:03;-3.30;99.90
21759;DHT22;11041;50.854;20.580;2022-12-18T08:13:36;-3.20;99.90
21759;DHT22;11041;50.854;20.580;2022-12-18T08:16:06;-3.20;99.90
21759;DHT22;11041;50.854;20.580;2022-12-18T08:18:34;-3.10;99.90
21759;DHT22;11041;50.854;20.580;2022-12-18T08:21:27;-3.30;99.90
21759;DHT22;11041;50.854;20.580;2022-12-18T08:23:57;-3.40;99.90
21759;DHT22;11041;50.854;20.580;2022-12-18T08:26:26;-3.30;99.90
21759;DHT22;11041;50.854;20.580;2022-12-18T08:28:56;-3.40;99.90
21759;DHT22;11041;50.854;20.580;2022-12-18T08:31:26;-3.40;99.90
21759;DHT22;11041;50.854;20.580;2022-12-18T08:33:55;-3.30;99.90
21759;DHT22;11041;50.854;20.580;2022-12-18T08:36:22;-3.30;99.90
21759;DHT22;11041;50.854;20.580;2022-12-18T08:38:56;-3.20;99.90
21759;DHT22;11041;50.854;20.580;2022-12-18T08:41:23;-3.20;99.90
21759;DHT22;11041;50.854;20.580;2022-12-18T08:43:50;-3.20;99.90
21759;DHT22;11041;50.854;20.580;2022-12-18T08:46:40;-3.10;99.90
21759;DHT22;11041;50.854;20.580;2022-12-18T08:49:10;-2.90;99.90
21759;DHT22;11041;50.854;20.580;2022-12-18T08:51:38;-3.10;99.90
21759;DHT22;11041;50.854;20.580;2022-12-18T08:54:06;-3.20;99.90
21759;DHT22;11041;50.854;20.580;2022-12-18T08:56:34;-3.10;99.90
21759;DHT22;11041;50.854;20.580;2022-12-18T08:59:00;-3.30;99.90
21759;DHT22;11041;50.854;20.580;2022-12-18T09:01:59;-3.20;99.90
21759;DHT22;11041;50.854;20.580;2022-12-18T09:04:28;-3.20;99.90
21759;DHT22;11041;50.854;20.580;2022-12-18T09:06:55;-3.00;99.90
21759;DHT22;11041;50.854;20.580;2022-12-18T09:09:22;-2.90;99.90
21759;DHT22;11041;50.854;20.580;2022-12-18T09:11:48;-2.90;99.90
21759;DHT22;11041;50.854;20.580;2022-12-18T09:14:15;-2.80;99.90
21759;DHT22;11041;50.854;20.580;2022-12-18T09:16:42;-2.70;99.90
21759;DHT22;11041;50.854;20.580;2022-12-18T09:19:09;-2.60;99.90
21759;DHT22;11041;50.854;20.580;2022-12-18T09:21:37;-2.60;99.90
21759;DHT22;11041;50.854;20.580;2022-12-18T09:24:04;-2.50;99.90
21759;DHT22;11041;50.854;20.580;2022-12-18T09:26:33;-2.50;99.90
21759;DHT22;11041;50.854;20.580;2022-12-18T09:29:16;-2.60;99.90
21759;DHT22;11041;50.854;20.580;2022-12-18T09:31:42;-2.70;99.90
21759;DHT22;11041;50.854;20.580;2022-12-18T09:34:09;-2.60;99.90
21759;DHT22;11041;50.854;20.580;2022-12-18T09:36:35;-2.60;99.90
21759;DHT22;11041;50.854;20.580;2022-12-18T09:39:03;-2.60;99.90
21759;DHT22;11041;50.854;20.580;2022-12-18T09:44:39;-2.60;99.90
21759;DHT22;11041;50.854;20.580;2022-12-18T09:53:13;-2.60;99.90
21759;DHT22;11041;50.854;20.580;2022-12-18T09:55:48;-2.70;99.90
21759;DHT22;11041;50.854;20.580;2022-12-18T10:01:17;-2.70;99.90
21759;DHT22;11041;50.854;20.580;2022-12-18T10:03:49;-2.90;99.90
21759;DHT22;11041;50.854;20.580;2022-12-18T10:12:13;-2.90;99.90
21759;DHT22;11041;50.854;20.580;2022-12-18T10:18:03;-3.00;99.90
21759;DHT22;11041;50.854;20.580;2022-12-18T10:20:49;-2.90;99.90
21759;DHT22;11041;50.854;20.580;2022-12-18T10:26:18;-2.90;99.90
21759;DHT22;11041;50.854;20.580;2022-12-18T10:28:45;-2.90;99.90
21759;DHT22;11041;50.854;20.580;2022-12-18T10:31:19;-2.70;99.90
21759;DHT22;11041;50.854;20.580;2022-12-18T10:33:48;-2.60;99.90
21759;DHT22;11041;50.854;20.580;2022-12-18T10:36:14;-2.60;99.90
21759;DHT22;11041;50.854;20.580;2022-12-18T10:38:41;-2.50;99.90
21759;DHT22;11041;50.854;20.580;2022-12-18T10:43:48;-2.70;99.90
21759;DHT22;11041;50.854;20.580;2022-12-18T10:46:35;-2.60;99.90
21759;DHT22;11041;50.854;20.580;2022-12-18T10:49:01;-2.60;99.90
21759;DHT22;11041;50.854;20.580;2022-12-18T10:51:34;-2.60;99.90
21759;DHT22;11041;50.854;20.580;2022-12-18T10:54:06;-2.50;99.90
21759;DHT22;11041;50.854;20.580;2022-12-18T10:56:44;-2.50;99.90
21759;DHT22;11041;50.854;20.580;2022-12-18T10:59:14;-2.60;99.90
21759;DHT22;11041;50.854;20.580;2022-12-18T11:01:53;-2.60;99.90
21759;DHT22;11041;50.854;20.580;2022-12-18T11:04:24;-2.60;99.90
21759;DHT22;11041;50.854;20.580;2022-12-18T11:07:08;-2.60;99.90
21759;DHT22;11041;50.854;20.580;2022-12-18T11:09:38;-2.70;99.90
21759;DHT22;11041;50.854;20.580;2022-12-18T11:12:18;-2.80;99.90
21759;DHT22;11041;50.854;20.580;2022-12-18T11:14:51;-2.70;99.90
21759;DHT22;11041;50.854;20.580;2022-12-18T11:17:50;-2.80;99.90
21759;DHT22;11041;50.854;20.580;2022-12-18T11:20:50;-2.90;99.90
21759;DHT22;11041;50.854;20.580;2022-12-18T11:23:50;-3.10;99.90
21759;DHT22;11041;50.854;20.580;2022-12-18T11:26:44;-3.10;99.90
21759;DHT22;11041;50.854;20.580;2022-12-18T11:29:37;-3.30;99.90
21759;DHT22;11041;50.854;20.580;2022-12-18T11:32:40;-3.40;99.90
21759;DHT22;11041;50.854;20.580;2022-12-18T11:35:48;-3.40;99.90
21759;DHT22;11041;50.854;20.580;2022-12-18T11:38:44;-3.30;99.90
21759;DHT22;11041;50.854;20.580;2022-12-18T12:30:21;-2.50;99.90
21759;DHT22;11041;50.854;20.580;2022-12-18T12:38:42;-2.50;99.90
21759;DHT22;11041;50.854;20.580;2022-12-18T12:41:14;-3.10;99.90
21759;DHT22;11041;50.854;20.580;2022-12-18T12:44:07;-3.00;99.90
21759;DHT22;11041;50.854;20.580;2022-12-18T12:46:41;-3.20;99.90
21759;DHT22;11041;50.854;20.580;2022-12-18T12:49:17;-3.30;99.90
21759;DHT22;11041;50.854;20.580;2022-12-18T13:23:47;-3.10;99.90
21759;DHT22;11041;50.854;20.580;2022-12-18T13:34:25;-3.70;99.90
21759;DHT22;11041;50.854;20.580;2022-12-18T13:51:44;-3.80;99.90
21759;DHT22;11041;50.854;20.580;2022-12-18T13:54:33;-3.80;99.90
21759;DHT22;11041;50.854;20.580;2022-12-18T13:57:39;-3.40;99.90
21759;DHT22;11041;50.854;20.580;2022-12-18T14:02:49;-3.10;99.90
21759;DHT22;11041;50.854;20.580;2022-12-18T14:05:27;-3.00;99.90
21759;DHT22;11041;50.854;20.580;2022-12-18T14:08:15;-3.10;99.90
21759;DHT22;11041;50.854;20.580;2022-12-18T14:10:46;-3.20;99.90
21759;DHT22;11041;50.854;20.580;2022-12-18T14:13:29;-3.10;99.90
21759;DHT22;11041;50.854;20.580;2022-12-18T14:16:05;-3.10;99.90
21759;DHT22;11041;50.854;20.580;2022-12-18T14:19:13;-2.90;99.90
21759;DHT22;11041;50.854;20.580;2022-12-18T14:21:47;-2.80;99.90
21759;DHT22;11041;50.854;20.580;2022-12-18T14:29:27;-2.70;99.90
21759;DHT22;11041;50.854;20.580;2022-12-18T14:32:13;-2.20;99.90
21759;DHT22;11041;50.854;20.580;2022-12-18T14:34:52;-3.00;99.90
21759;DHT22;11041;50.854;20.580;2022-12-18T14:37:25;-3.00;99.90
21759;DHT22;11041;50.854;20.580;2022-12-18T14:40:03;-2.90;99.90
21759;DHT22;11041;50.854;20.580;2022-12-18T14:42:30;-2.90;99.90
21759;DHT22;11041;50.854;20.580;2022-12-18T14:48:17;-2.90;99.90
21759;DHT22;11041;50.854;20.580;2022-12-18T14:50:59;-2.80;99.90
21759;DHT22;11041;50.854;20.580;2022-12-18T14:53:34;-3.00;99.90
21759;DHT22;11041;50.854;20.580;2022-12-18T14:59:04;-3.10;99.90
21759;DHT22;11041;50.854;20.580;2022-12-18T15:05:00;-3.00;99.90
21759;DHT22;11041;50.854;20.580;2022-12-18T15:07:44;-3.20;99.90
21759;DHT22;11041;50.854;20.580;2022-12-18T15:10:20;-3.20;99.90
21759;DHT22;11041;50.854;20.580;2022-12-18T15:21:07;-3.20;99.90
21759;DHT22;11041;50.854;20.580;2022-12-18T15:26:17;-3.10;99.90
21759;DHT22;11041;50.854;20.580;2022-12-18T15:28:52;-3.10;99.90
21759;DHT22;11041;50.854;20.580;2022-12-18T15:31:32;-3.10;99.90
21759;DHT22;11041;50.854;20.580;2022-12-18T15:34:19;-3.20;99.90
21759;DHT22;11041;50.854;20.580;2022-12-18T15:36:47;-3.20;99.90
21759;DHT22;11041;50.854;20.580;2022-12-18T15:39:14;-3.10;99.90
21759;DHT22;11041;50.854;20.580;2022-12-18T15:41:40;-3.20;99.90
21759;DHT22;11041;50.854;20.580;2022-12-18T15:44:27;-2.90;99.90
21759;DHT22;11041;50.854;20.580;2022-12-18T15:46:58;-3.60;99.90
21759;DHT22;11041;50.854;20.580;2022-12-18T15:49:24;-3.00;99.90
21759;DHT22;11041;50.854;20.580;2022-12-18T15:51:54;-3.00;99.90
21759;DHT22;11041;50.854;20.580;2022-12-18T15:54:24;-3.10;99.90
21759;DHT22;11041;50.854;20.580;2022-12-18T15:57:11;-3.10;99.90
21759;DHT22;11041;50.854;20.580;2022-12-18T15:59:54;-3.10;99.90
21759;DHT22;11041;50.854;20.580;2022-12-18T16:02:24;-3.10;99.90
21759;DHT22;11041;50.854;20.580;2022-12-18T16:04:52;-3.10;99.90
21759;DHT22;11041;50.854;20.580;2022-12-18T16:07:20;-2.80;99.90
21759;DHT22;11041;50.854;20.580;2022-12-18T16:09:50;-3.10;99.90
21759;DHT22;11041;50.854;20.580;2022-12-18T16:12:21;-3.10;99.90
21759;DHT22;11041;50.854;20.580;2022-12-18T16:14:50;-3.10;99.90
21759;DHT22;11041;50.854;20.580;2022-12-18T16:17:16;-3.10;99.90
21759;DHT22;11041;50.854;20.580;2022-12-18T16:19:44;-3.10;99.90
21759;DHT22;11041;50.854;20.580;2022-12-18T16:22:21;-3.10;99.90
21759;DHT22;11041;50.854;20.580;2022-12-18T16:24:51;-3.10;99.90
21759;DHT22;11041;50.854;20.580;2022-12-18T16:27:19;-3.10;99.90
21759;DHT22;11041;50.854;20.580;2022-12-18T16:29:47;-3.00;99.90
21759;DHT22;11041;50.854;20.580;2022-12-18T16:32:17;-3.00;99.90
21759;DHT22;11041;50.854;20.580;2022-12-18T16:34:45;-3.00;99.90
21759;DHT22;11041;50.854;20.580;2022-12-18T16:37:15;-2.90;99.90
21759;DHT22;11041;50.854;20.580;2022-12-18T16:39:42;-2.90;99.90
21759;DHT22;11041;50.854;20.580;2022-12-18T16:42:18;-2.90;99.90
21759;DHT22;11041;50.854;20.580;2022-12-18T16:44:47;-2.90;99.90
21759;DHT22;11041;50.854;20.580;2022-12-18T16:47:16;-2.80;99.90
21759;DHT22;11041;50.854;20.580;2022-12-18T16:49:44;-2.90;99.90
21759;DHT22;11041;50.854;20.580;2022-12-18T16:52:11;-2.90;99.90
21759;DHT22;11041;50.854;20.580;2022-12-18T16:54:38;-2.80;99.90
21759;DHT22;11041;50.854;20.580;2022-12-18T16:57:05;-2.90;99.90
21759;DHT22;11041;50.854;20.580;2022-12-18T16:59:35;-2.80;99.90
21759;DHT22;11041;50.854;20.580;2022-12-18T17:02:05;-2.90;99.90
21759;DHT22;11041;50.854;20.580;2022-12-18T17:04:37;-2.80;99.90
21759;DHT22;11041;50.854;20.580;2022-12-18T17:07:03;-2.90;99.90
21759;DHT22;11041;50.854;20.580;2022-12-18T17:09:30;-2.90;99.90
21759;DHT22;11041;50.854;20.580;2022-12-18T17:11:56;-2.90;99.90
21759;DHT22;11041;50.854;20.580;2022-12-18T17:14:24;-2.90;99.90
21759;DHT22;11041;50.854;20.580;2022-12-18T17:16:53;-2.80;99.90
21759;DHT22;11041;50.854;20.580;2022-12-18T17:19:23;-2.80;99.90
21759;DHT22;11041;50.854;20.580;2022-12-18T17:21:50;-2.80;99.90
21759;DHT22;11041;50.854;20.580;2022-12-18T17:24:17;-2.80;99.90
21759;DHT22;11041;50.854;20.580;2022-12-18T17:26:45;-2.70;99.90
21759;DHT22;11041;50.854;20.580;2022-12-18T17:29:15;-2.70;99.90
21759;DHT22;11041;50.854;20.580;2022-12-18T17:31:44;-2.70;99.90
21759;DHT22;11041;50.854;20.580;2022-12-18T17:34:11;-2.70;99.90
21759;DHT22;11041;50.854;20.580;2022-12-18T17:36:38;-2.70;99.90
21759;DHT22;11041;50.854;20.580;2022-12-18T17:39:06;-2.80;99.90
21759;DHT22;11041;50.854;20.580;2022-12-18T17:41:34;-2.80;99.90
21759;DHT22;11041;50.854;20.580;2022-12-18T17:44:03;-2.70;99.90
21759;DHT22;11041;50.854;20.580;2022-12-18T17:46:32;-2.80;99.90
21759;DHT22;11041;50.854;20.580;2022-12-18T17:49:00;-2.80;99.90
21759;DHT22;11041;50.854;20.580;2022-12-18T17:51:28;-2.70;99.90
21759;DHT22;11041;50.854;20.580;2022-12-18T17:53:55;-2.70;99.90
21759;DHT22;11041;50.854;20.580;2022-12-18T17:56:23;-2.70;99.90
21759;DHT22;11041;50.854;20.580;2022-12-18T17:58:50;-2.70;99.90
21759;DHT22;11041;50.854;20.580;2022-12-18T18:01:23;-2.70;99.90
21759;DHT22;11041;50.854;20.580;2022-12-18T18:03:50;-2.70;99.90
21759;DHT22;11041;50.854;20.580;2022-12-18T18:06:17;-2.80;99.90
21759;DHT22;11041;50.854;20.580;2022-12-18T18:08:44;-2.80;99.90
21759;DHT22;11041;50.854;20.580;2022-12-18T18:11:14;-2.80;99.90
21759;DHT22;11041;50.854;20.580;2022-12-18T18:14:02;-2.80;99.90
21759;DHT22;11041;50.854;20.580;2022-12-18T18:16:33;-2.70;99.90
21759;DHT22;11041;50.854;20.580;2022-12-18T18:19:04;-2.80;99.90
21759;DHT22;11041;50.854;20.580;2022-12-18T18:21:37;-2.70;99.90
21759;DHT22;11041;50.854;20.580;2022-12-18T18:24:06;-2.70;99.90
21759;DHT22;11041;50.854;20.580;2022-12-18T18:26:35;-2.70;99.90
21759;DHT22;11041;50.854;20.580;2022-12-18T18:29:04;-2.70;99.90
21759;DHT22;11041;50.854;20.580;2022-12-18T18:31:32;-2.80;99.90
21759;DHT22;11041;50.854;20.580;2022-12-18T18:34:02;-2.80;99.90
21759;DHT22;11041;50.854;20.580;2022-12-18T18:36:29;-2.80;99.90
21759;DHT22;11041;50.854;20.580;2022-12-18T18:38:58;-2.70;99.90
21759;DHT22;11041;50.854;20.580;2022-12-18T18:41:28;-2.80;99.90
21759;DHT22;11041;50.854;20.580;2022-12-18T18:43:56;-2.80;99.90
21759;DHT22;11041;50.854;20.580;2022-12-18T18:46:24;-2.80;99.90
21759;DHT22;11041;50.854;20.580;2022-12-18T18:48:52;-2.80;99.90
21759;DHT22;11041;50.854;20.580;2022-12-18T18:51:20;-2.80;99.90
21759;DHT22;11041;50.854;20.580;2022-12-18T18:53:49;-2.80;99.90
21759;DHT22;11041;50.854;20.580;2022-12-18T18:56:19;-2.90;99.90
21759;DHT22;11041;50.854;20.580;2022-12-18T18:58:47;-3.10;99.90
21759;DHT22;11041;50.854;20.580;2022-12-18T19:01:19;-3.00;99.90
21759;DHT22;11041;50.854;20.580;2022-12-18T19:03:47;-3.00;99.90
21759;DHT22;11041;50.854;20.580;2022-12-18T19:06:18;-2.90;99.90
21759;DHT22;11041;50.854;20.580;2022-12-18T19:08:48;-2.90;99.90
21759;DHT22;11041;50.854;20.580;2022-12-18T19:11:16;-3.00;99.90
21759;DHT22;11041;50.854;20.580;2022-12-18T19:14:04;-2.90;99.90
21759;DHT22;11041;50.854;20.580;2022-12-18T19:16:33;-2.90;99.90
21759;DHT22;11041;50.854;20.580;2022-12-18T19:19:01;-3.10;99.90
21759;DHT22;11041;50.854;20.580;2022-12-18T19:21:28;-3.10;99.90
21759;DHT22;11041;50.854;20.580;2022-12-18T19:23:58;-3.10;99.90
21759;DHT22;11041;50.854;20.580;2022-12-18T19:26:26;-3.20;99.90
21759;DHT22;11041;50.854;20.580;2022-12-18T19:28:52;-3.10;99.90
21759;DHT22;11041;50.854;20.580;2022-12-18T19:31:22;-3.20;99.90
21759;DHT22;11041;50.854;20.580;2022-12-18T19:33:49;-3.20;99.90
21759;DHT22;11041;50.854;20.580;2022-12-18T19:38:48;-3.20;99.90
21759;DHT22;11041;50.854;20.580;2022-12-18T19:41:17;-3.30;99.90
21759;DHT22;11041;50.854;20.580;2022-12-18T19:43:44;-3.20;99.90
21759;DHT22;11041;50.854;20.580;2022-12-18T19:46:12;-3.20;99.90
21759;DHT22;11041;50.854;20.580;2022-12-18T19:48:42;-3.20;99.90